createdAt,value
2018-05-04T00:02:06.973Z,7.70
2018-05-04T00:04:34.513Z,7.13
2018-05-04T00:07:02.031Z,8.13
2018-05-04T00:09:29.761Z,7.70
2018-05-04T00:11:57.281Z,7.57
2018-05-04T00:14:24.794Z,7.57
2018-05-04T00:16:52.368Z,7.30
2018-05-04T00:19:19.888Z,7.83
2018-05-04T00:21:47.431Z,8.17
2018-05-04T00:24:15.003Z,7.77
2018-05-04T00:26:42.545Z,8.23
2018-05-04T00:29:10.106Z,8.17
2018-05-04T00:31:37.652Z,8.60
2018-05-04T00:34:05.169Z,9.00
2018-05-04T00:36:32.756Z,7.90
2018-05-04T00:39:00.300Z,8.27
2018-05-04T00:41:27.829Z,7.97
2018-05-04T00:43:55.340Z,8.70
2018-05-04T00:46:22.880Z,8.97
2018-05-04T00:48:50.412Z,9.27
2018-05-04T00:51:17.935Z,8.17
2018-05-04T00:53:57.372Z,7.77
2018-05-04T00:56:24.940Z,7.80
2018-05-04T00:58:52.524Z,9.10
2018-05-04T01:01:20.095Z,8.60
2018-05-04T01:03:47.611Z,8.73
2018-05-04T01:06:15.164Z,9.70
2018-05-04T01:08:42.913Z,9.27
2018-05-04T01:11:11.347Z,9.40
2018-05-04T01:13:39.091Z,9.17
2018-05-04T01:16:06.831Z,9.67
2018-05-04T01:18:34.361Z,9.27
2018-05-04T01:21:01.880Z,9.97
2018-05-04T01:23:29.444Z,9.87
2018-05-04T01:25:56.990Z,9.70
2018-05-04T01:28:24.647Z,10.17
2018-05-04T01:30:52.246Z,11.23
2018-05-04T01:33:19.771Z,9.97
2018-05-04T01:35:47.337Z,10.67
2018-05-04T01:38:15.087Z,11.13
2018-05-04T01:40:42.656Z,10.13
2018-05-04T01:43:10.213Z,10.70
2018-05-04T01:45:38.068Z,10.33
2018-05-04T01:48:05.634Z,10.90
2018-05-04T01:50:33.186Z,10.90
2018-05-04T01:53:00.765Z,10.90
2018-05-04T01:55:28.293Z,11.10
2018-05-04T01:57:55.826Z,10.87
2018-05-04T02:00:23.511Z,11.63
2018-05-04T02:02:51.091Z,11.80
2018-05-04T02:05:18.645Z,12.10
2018-05-04T02:07:46.216Z,12.00
2018-05-04T02:10:13.753Z,11.57
2018-05-04T02:12:41.280Z,13.10
2018-05-04T02:15:09.210Z,12.70
2018-05-04T02:17:36.749Z,11.73
2018-05-04T02:20:04.269Z,12.23
2018-05-04T02:22:32.377Z,11.45
2018-05-04T02:24:59.945Z,11.57
2018-05-04T02:27:27.499Z,12.35
2018-05-04T02:29:55.348Z,13.00
2018-05-04T02:32:22.878Z,12.60
2018-05-04T02:34:50.436Z,13.07
2018-05-04T02:37:18.105Z,13.00
2018-05-04T02:39:45.636Z,12.65
2018-05-04T02:42:13.165Z,12.55
2018-05-04T02:44:41.025Z,11.40
2018-05-04T02:47:08.586Z,13.55
2018-05-04T02:49:36.144Z,13.40
2018-05-04T02:52:03.719Z,13.10
2018-05-04T02:54:31.272Z,13.27
2018-05-04T02:56:58.798Z,12.82
2018-05-04T02:59:27.332Z,13.38
2018-05-04T03:01:54.870Z,13.60
2018-05-04T03:04:22.395Z,14.20
2018-05-04T03:06:49.965Z,13.98
2018-05-04T03:09:17.542Z,13.50
2018-05-04T03:11:45.113Z,13.05
2018-05-04T03:14:12.952Z,14.50
2018-05-04T03:16:40.579Z,13.48
2018-05-04T03:19:08.110Z,12.83
2018-05-04T03:21:36.269Z,13.30
2018-05-04T03:24:03.834Z,13.48
2018-05-04T03:26:31.368Z,12.50
2018-05-04T03:28:59.142Z,12.88
2018-05-04T03:31:26.709Z,12.85
2018-05-04T03:33:54.262Z,12.68
2018-05-04T03:36:21.941Z,13.05
2018-05-04T03:38:49.477Z,13.40
2018-05-04T03:41:17.000Z,12.30
2018-05-04T03:43:44.809Z,13.35
2018-05-04T03:46:12.352Z,13.25
2018-05-04T03:48:39.880Z,11.63
2018-05-04T03:51:07.672Z,11.90
2018-05-04T03:53:35.250Z,13.00
2018-05-04T03:56:02.779Z,13.97
2018-05-04T03:58:42.762Z,12.70
2018-05-04T04:04:15.259Z,13.00
2018-05-04T04:06:42.812Z,12.48
2018-05-04T04:09:10.346Z,12.30
2018-05-04T04:11:37.933Z,13.77
2018-05-04T04:14:05.903Z,12.60
2018-05-04T04:16:33.442Z,13.52
2018-05-04T04:19:01.030Z,13.30
2018-05-04T04:21:28.595Z,12.85
2018-05-04T04:23:56.276Z,12.55
2018-05-04T04:26:24.007Z,12.40
2018-05-04T04:28:51.619Z,12.80
2018-05-04T04:31:19.152Z,12.43
2018-05-04T04:33:46.726Z,12.10
2018-05-04T04:36:14.594Z,12.23
2018-05-04T04:38:42.362Z,12.57
2018-05-04T04:41:10.390Z,13.27
2018-05-04T04:43:38.011Z,11.38
2018-05-04T04:46:05.571Z,11.98
2018-05-04T04:48:33.158Z,11.65
2018-05-04T04:51:00.761Z,12.05
2018-05-04T04:53:28.283Z,13.27
2018-05-04T04:55:56.025Z,11.20
2018-05-04T04:58:23.575Z,10.93
2018-05-04T05:00:51.100Z,11.73
2018-05-04T05:03:19.135Z,9.43
2018-05-04T05:05:46.694Z,10.70
2018-05-04T05:08:14.260Z,10.20
2018-05-04T05:10:42.078Z,10.00
2018-05-04T05:13:10.442Z,8.80
2018-05-04T05:15:38.160Z,8.90
2018-05-04T05:18:05.736Z,9.30
2018-05-04T05:20:33.281Z,8.93
2018-05-04T05:23:00.874Z,7.77
2018-05-04T05:25:28.501Z,9.03
2018-05-04T05:27:56.025Z,8.27
2018-05-04T05:30:23.535Z,8.13
2018-05-04T05:32:51.399Z,7.07
2018-05-04T05:35:18.912Z,8.23
2018-05-04T05:37:46.431Z,7.40
2018-05-04T05:40:14.021Z,7.53
2018-05-04T05:42:41.737Z,8.37
2018-05-04T05:45:09.284Z,7.73
2018-05-04T05:47:36.976Z,7.10
2018-05-04T05:50:04.499Z,7.33
2018-05-04T05:52:32.008Z,7.63
2018-05-04T05:54:59.725Z,7.30
2018-05-04T05:57:27.285Z,6.30
2018-05-04T05:59:54.849Z,5.83
2018-05-04T06:02:22.515Z,6.53
2018-05-04T06:04:50.064Z,5.30
2018-05-04T06:07:17.568Z,5.20
2018-05-04T06:09:45.388Z,5.90
2018-05-04T06:12:12.952Z,5.90
2018-05-04T06:14:40.696Z,5.20
2018-05-04T06:17:08.480Z,5.67
2018-05-04T06:19:35.992Z,5.27
2018-05-04T06:22:03.554Z,4.50
2018-05-04T06:24:31.360Z,4.50
2018-05-04T06:26:58.873Z,4.80
2018-05-04T06:29:26.405Z,4.87
2018-05-04T06:31:54.345Z,4.30
2018-05-04T06:34:21.905Z,3.63
2018-05-04T06:36:49.466Z,4.30
2018-05-04T06:39:17.227Z,4.33
2018-05-04T06:41:44.791Z,4.97
2018-05-04T06:44:12.317Z,4.13
2018-05-04T06:46:39.872Z,5.10
2018-05-04T06:49:07.877Z,4.73
2018-05-04T06:51:35.435Z,4.90
2018-05-04T06:54:03.177Z,4.70
2018-05-04T06:56:30.687Z,3.70
2018-05-04T06:58:58.623Z,3.53
2018-05-04T07:01:26.231Z,3.67
2018-05-04T07:03:53.777Z,3.80
2018-05-04T07:06:21.288Z,4.50
2018-05-04T07:08:49.785Z,4.57
2018-05-04T07:11:17.316Z,3.87
2018-05-04T07:13:44.823Z,4.20
2018-05-04T07:16:12.775Z,3.80
2018-05-04T07:18:41.251Z,4.13
2018-05-04T07:21:09.730Z,4.20
2018-05-04T07:23:37.732Z,4.70
2018-05-04T07:26:05.243Z,3.87
2018-05-04T07:28:32.762Z,4.97
2018-05-04T07:31:00.325Z,4.33
2018-05-04T07:33:27.834Z,4.00
2018-05-04T07:35:55.480Z,3.80
2018-05-04T07:38:22.956Z,3.80
2018-05-04T07:40:50.661Z,4.10
2018-05-04T07:43:18.171Z,3.80
2018-05-04T07:45:46.634Z,4.50
2018-05-04T07:48:14.171Z,4.30
2018-05-04T07:50:41.693Z,4.07
2018-05-04T07:53:09.620Z,4.50
2018-05-04T07:55:37.149Z,4.80
2018-05-04T07:58:04.690Z,4.70
2018-05-04T08:00:32.629Z,4.00
2018-05-04T08:03:00.711Z,4.63
2018-05-04T08:05:28.240Z,4.87
2018-05-04T08:07:56.336Z,4.33
2018-05-04T08:10:23.864Z,4.87
2018-05-04T08:12:51.395Z,4.73
2018-05-04T08:15:19.117Z,5.43
2018-05-04T08:17:47.414Z,3.67
2018-05-04T08:20:14.943Z,4.50
2018-05-04T08:22:42.689Z,5.47
2018-05-04T08:25:10.213Z,5.77
2018-05-04T08:27:37.729Z,4.90
2018-05-04T08:30:05.489Z,4.97
2018-05-04T08:32:33.091Z,4.43
2018-05-04T08:35:00.637Z,4.90
2018-05-04T08:37:28.473Z,5.10
2018-05-04T08:39:56.032Z,5.30
2018-05-04T08:42:23.592Z,5.43
2018-05-04T08:44:51.458Z,5.80
2018-05-04T08:47:19.021Z,6.27
2018-05-04T08:49:46.576Z,5.67
2018-05-04T08:52:14.445Z,6.30
2018-05-04T08:54:42.030Z,5.90
2018-05-04T08:57:09.579Z,5.47
2018-05-04T08:59:37.154Z,5.50
2018-05-04T09:02:04.672Z,5.60
2018-05-04T09:04:32.193Z,5.70
2018-05-04T09:07:00.838Z,5.23
2018-05-04T09:09:28.382Z,6.50
2018-05-04T09:11:55.901Z,7.30
2018-05-04T09:14:23.688Z,7.00
2018-05-04T09:16:51.313Z,7.13
2018-05-04T09:19:18.830Z,5.30
2018-05-04T09:21:46.673Z,6.43
2018-05-04T09:24:14.260Z,6.77
2018-05-04T09:26:41.812Z,6.83
2018-05-04T09:29:09.392Z,7.00
2018-05-04T09:31:37.073Z,6.37
2018-05-04T09:34:04.718Z,6.40
2018-05-04T09:36:32.366Z,6.90
2018-05-04T09:38:59.878Z,6.80
2018-05-04T09:41:27.409Z,6.10
2018-05-04T09:43:54.959Z,5.70
2018-05-04T09:46:22.492Z,7.67
2018-05-04T09:48:50.072Z,7.80
2018-05-04T09:51:17.629Z,7.07
2018-05-04T09:53:46.090Z,6.70
2018-05-04T09:56:13.652Z,7.43
2018-05-04T09:58:41.393Z,7.03
2018-05-04T10:01:08.908Z,8.23
2018-05-04T10:03:36.442Z,7.10
2018-05-04T10:06:04.012Z,7.43
2018-05-04T10:08:31.533Z,7.13
2018-05-04T10:10:59.054Z,7.10
2018-05-04T10:13:27.080Z,7.10
2018-05-04T10:15:54.596Z,7.33
2018-05-04T10:18:22.116Z,7.50
2018-05-04T10:20:49.835Z,8.57
2018-05-04T10:23:18.340Z,7.57
2018-05-04T10:25:45.863Z,8.30
2018-05-04T10:28:13.405Z,7.73
2018-05-04T10:30:40.927Z,8.27
2018-05-04T10:33:08.460Z,8.50
2018-05-04T10:35:36.319Z,8.00
2018-05-04T10:38:03.883Z,7.77
2018-05-04T10:40:31.381Z,8.50
2018-05-04T10:42:59.162Z,8.37
2018-05-04T10:45:26.631Z,9.07
2018-05-04T10:47:54.146Z,9.30
2018-05-04T10:50:21.888Z,7.93
2018-05-04T10:52:49.405Z,8.23
2018-05-04T10:55:16.928Z,8.20
2018-05-04T10:57:44.595Z,7.27
2018-05-04T11:00:12.149Z,8.57
2018-05-04T11:02:39.722Z,9.07
2018-05-04T11:05:07.245Z,9.40
2018-05-04T11:07:34.761Z,9.43
2018-05-04T11:10:02.461Z,9.00
2018-05-04T11:12:30.021Z,9.00
2018-05-04T11:14:57.536Z,8.10
2018-05-04T11:17:25.056Z,8.10
2018-05-04T11:19:53.403Z,8.43
2018-05-04T11:22:20.933Z,8.60
2018-05-04T11:24:48.456Z,8.20
2018-05-04T11:27:16.188Z,8.63
2018-05-04T11:29:43.704Z,9.07
2018-05-04T11:32:11.223Z,8.60
2018-05-04T11:34:38.891Z,9.67
2018-05-04T11:37:06.521Z,9.20
2018-05-04T11:39:34.093Z,10.63
2018-05-04T11:42:01.877Z,10.07
2018-05-04T11:44:29.417Z,9.03
2018-05-04T11:46:56.939Z,9.90
2018-05-04T11:49:24.841Z,9.07
2018-05-04T11:51:52.368Z,10.27
2018-05-04T11:54:19.897Z,8.97
2018-05-04T11:56:47.524Z,9.50
2018-05-04T11:59:15.060Z,9.27
2018-05-04T12:01:42.587Z,8.93
2018-05-04T12:04:10.400Z,10.03
2018-05-04T12:06:37.921Z,9.50
2018-05-04T12:09:06.284Z,11.33
2018-05-04T12:11:34.332Z,9.10
2018-05-04T12:14:01.924Z,9.40
2018-05-04T12:16:29.756Z,9.50
2018-05-04T12:18:58.080Z,9.57
2018-05-04T12:21:26.383Z,8.63
2018-05-04T12:23:53.931Z,9.47
2018-05-04T12:26:22.467Z,9.03
2018-05-04T12:28:50.419Z,8.97
2018-05-04T12:31:18.387Z,9.50
2018-05-04T12:33:46.157Z,9.93
2018-05-04T12:36:15.558Z,10.80
2018-05-04T12:38:43.421Z,9.67
2018-05-04T12:41:11.168Z,10.17
2018-05-04T12:43:38.841Z,10.43
2018-05-04T12:46:07.126Z,10.80
2018-05-04T12:48:34.990Z,10.63
2018-05-04T12:51:03.368Z,9.60
2018-05-04T12:53:31.018Z,11.30
2018-05-04T12:55:58.897Z,9.80
2018-05-04T12:58:26.652Z,8.47
2018-05-04T13:00:55.091Z,9.00
2018-05-04T13:03:23.112Z,8.93
2018-05-04T13:05:51.694Z,8.73
2018-05-04T13:08:19.446Z,8.03
2018-05-04T13:10:47.735Z,7.33
2018-05-04T13:13:15.554Z,8.60
2018-05-04T13:15:44.185Z,9.03
2018-05-04T13:18:12.093Z,7.90
2018-05-04T13:20:41.927Z,8.07
2018-05-04T13:23:09.726Z,9.00
2018-05-04T13:25:37.868Z,9.20
2018-05-04T13:28:05.595Z,8.80
2018-05-04T13:30:33.116Z,9.00
2018-05-04T13:33:00.991Z,8.93
2018-05-04T13:35:28.916Z,8.50
2018-05-04T13:37:56.554Z,9.67
2018-05-04T13:40:24.522Z,9.50
2018-05-04T13:42:52.294Z,9.10
2018-05-04T13:45:20.120Z,8.57
2018-05-04T13:47:48.028Z,9.60
2018-05-04T13:50:15.677Z,7.83
2018-05-04T13:52:43.309Z,8.53
2018-05-04T13:55:10.956Z,10.63
2018-05-04T13:57:38.509Z,9.13
2018-05-04T14:00:06.272Z,8.80
2018-05-04T14:02:34.286Z,8.40
2018-05-04T14:05:01.893Z,9.20
2018-05-04T14:07:29.444Z,10.27
2018-05-04T14:09:57.336Z,10.53
2018-05-04T14:12:25.013Z,10.00
2018-05-04T14:14:52.552Z,9.07
2018-05-04T14:17:20.133Z,10.47
2018-05-04T14:19:47.780Z,9.67
2018-05-04T14:22:15.383Z,9.33
2018-05-04T14:24:43.095Z,9.50
2018-05-04T14:27:10.837Z,9.67
2018-05-04T14:29:39.259Z,10.20
2018-05-04T14:32:07.010Z,10.37
2018-05-04T14:34:34.653Z,8.93
2018-05-04T14:37:02.333Z,9.17
2018-05-04T14:39:30.001Z,9.13
2018-05-04T14:41:57.605Z,8.90
2018-05-04T14:44:25.206Z,8.87
2018-05-04T14:46:52.813Z,8.43
2018-05-04T14:49:21.033Z,9.50
2018-05-04T14:51:48.559Z,8.23
2018-05-04T14:54:16.274Z,7.80
2018-05-04T14:56:43.820Z,9.20
2018-05-04T14:59:11.611Z,9.00
2018-05-04T15:01:39.644Z,8.93
2018-05-04T15:04:07.333Z,8.80
2018-05-04T15:06:35.107Z,7.77
2018-05-04T15:09:03.392Z,8.80
2018-05-04T15:11:31.149Z,7.90
2018-05-04T15:13:58.807Z,9.10
2018-05-04T15:16:26.881Z,8.07
2018-05-04T15:18:54.548Z,8.40
2018-05-04T15:21:22.409Z,8.60
2018-05-04T15:23:50.278Z,8.07
2018-05-04T15:26:18.040Z,7.30
2018-05-04T15:28:45.777Z,8.67
2018-05-04T15:31:13.657Z,8.03
2018-05-04T15:33:41.845Z,7.40
2018-05-04T15:36:09.477Z,7.47
2018-05-04T15:38:37.313Z,7.93
2018-05-04T15:41:04.843Z,7.93
2018-05-04T15:43:32.469Z,7.77
2018-05-04T15:46:00.382Z,8.33
2018-05-04T15:48:33.489Z,7.73
2018-05-04T15:51:06.969Z,7.93
2018-05-04T15:53:34.609Z,7.73
2018-05-04T15:56:02.208Z,6.87
2018-05-04T15:58:30.448Z,6.40
2018-05-04T16:00:58.073Z,7.30
2018-05-04T16:03:25.620Z,6.23
2018-05-04T16:05:53.303Z,6.57
2018-05-04T16:08:20.887Z,6.20
2018-05-04T16:10:48.414Z,5.13
2018-05-04T16:13:16.186Z,5.60
2018-05-04T16:15:43.750Z,6.80
2018-05-04T16:18:11.284Z,6.73
2018-05-04T16:20:38.833Z,5.17
2018-05-04T16:23:06.349Z,5.63
2018-05-04T16:25:33.865Z,4.63
2018-05-04T16:28:01.933Z,5.20
2018-05-04T16:30:29.446Z,5.40
2018-05-04T16:32:56.960Z,4.20
2018-05-04T16:35:24.858Z,5.20
2018-05-04T16:37:52.405Z,5.10
2018-05-04T16:40:20.010Z,4.53
2018-05-04T16:42:47.723Z,5.80
2018-05-04T16:45:15.258Z,4.47
2018-05-04T16:47:48.772Z,4.63
2018-05-04T16:50:16.292Z,5.10
2018-05-04T16:52:43.795Z,5.00
2018-05-04T16:55:11.349Z,4.53
2018-05-04T16:57:38.876Z,4.40
2018-05-04T17:00:06.394Z,4.40
2018-05-04T17:02:34.128Z,3.67
2018-05-04T17:05:01.673Z,4.27
2018-05-04T17:07:29.528Z,4.80
2018-05-04T17:09:57.094Z,4.70
2018-05-04T17:12:24.699Z,4.63
2018-05-04T17:14:52.330Z,4.80
2018-05-04T17:17:20.126Z,4.10
2018-05-04T17:19:47.672Z,4.67
2018-05-04T17:22:15.463Z,4.33
2018-05-04T17:24:43.213Z,4.20
2018-05-04T17:27:10.944Z,4.07
2018-05-04T17:29:38.614Z,3.70
2018-05-04T17:32:06.709Z,3.60
2018-05-04T17:34:34.320Z,4.77
2018-05-04T17:37:02.034Z,3.40
2018-05-04T17:39:29.898Z,3.83
2018-05-04T17:41:57.507Z,3.27
2018-05-04T17:44:25.089Z,4.10
2018-05-04T17:46:52.973Z,3.90
2018-05-04T17:49:21.176Z,3.77
2018-05-04T17:51:48.765Z,4.30
2018-05-04T17:54:16.388Z,3.87
2018-05-04T17:56:44.050Z,3.40
2018-05-04T17:59:11.898Z,3.50
2018-05-04T18:01:39.491Z,4.63
2018-05-04T18:04:07.007Z,3.57
2018-05-04T18:06:34.533Z,4.17
2018-05-04T18:09:02.363Z,4.50
2018-05-04T18:11:30.150Z,3.97
2018-05-04T18:13:57.701Z,4.30
2018-05-04T18:16:25.426Z,4.33
2018-05-04T18:18:53.111Z,4.37
2018-05-04T18:21:20.663Z,3.83
2018-05-04T18:23:48.409Z,3.97
2018-05-04T18:26:16.089Z,4.03
2018-05-04T18:28:43.729Z,5.40
2018-05-04T18:31:11.462Z,3.53
2018-05-04T18:33:39.068Z,3.60
2018-05-04T18:36:06.940Z,4.17
2018-05-04T18:38:34.988Z,3.90
2018-05-04T18:41:02.693Z,3.90
2018-05-04T18:43:30.440Z,4.03
2018-05-04T18:45:59.225Z,4.40
2018-05-04T18:48:26.999Z,3.93
2018-05-04T18:50:55.280Z,4.80
2018-05-04T18:53:23.545Z,4.47
2018-05-04T18:55:51.311Z,3.80
2018-05-04T18:58:18.925Z,3.40
2018-05-04T19:00:46.836Z,3.83
2018-05-04T19:03:19.923Z,4.00
2018-05-04T19:05:47.723Z,3.67
2018-05-04T19:08:15.555Z,4.00
2018-05-04T19:10:43.624Z,3.23
2018-05-04T19:13:11.702Z,3.83
2018-05-04T19:15:39.948Z,3.53
2018-05-04T19:18:08.013Z,3.73
2018-05-04T19:20:37.771Z,4.30
2018-05-04T19:23:06.445Z,5.10
2018-05-04T19:25:34.722Z,3.90
2018-05-04T19:28:03.407Z,4.60
2018-05-04T19:30:31.270Z,3.37
2018-05-04T19:32:58.920Z,4.47
2018-05-04T19:35:26.901Z,4.10
2018-05-04T19:37:54.869Z,3.70
2018-05-04T19:40:22.745Z,3.87
2018-05-04T19:42:50.602Z,4.60
2018-05-04T19:45:18.365Z,5.43
2018-05-04T19:47:46.335Z,4.10
2018-05-04T19:50:14.481Z,3.80
2018-05-04T19:52:42.138Z,4.00
2018-05-04T19:55:10.041Z,3.83
2018-05-04T19:57:37.908Z,3.97
2018-05-04T20:00:05.770Z,3.83
2018-05-04T20:02:33.636Z,4.03
2018-05-04T20:05:01.913Z,3.80
2018-05-04T20:07:31.850Z,3.97
2018-05-04T20:10:00.686Z,3.10
2018-05-04T20:12:30.012Z,2.87
2018-05-04T20:14:59.013Z,4.03
2018-05-04T20:17:26.774Z,3.83
2018-05-04T20:19:56.545Z,3.73
2018-05-04T20:22:24.354Z,3.30
2018-05-04T20:24:52.220Z,3.90
2018-05-04T20:27:19.983Z,3.77
2018-05-04T20:29:47.797Z,4.47
2018-05-04T20:32:15.525Z,3.73
2018-05-04T20:34:43.582Z,4.10
2018-05-04T20:37:11.252Z,3.57
2018-05-04T20:39:39.009Z,4.10
2018-05-04T20:42:06.768Z,4.23
2018-05-04T20:44:34.645Z,3.53
2018-05-04T20:47:02.506Z,4.00
2018-05-04T20:49:30.372Z,3.73
2018-05-04T20:51:58.166Z,4.80
2018-05-04T20:54:25.900Z,3.43
2018-05-04T20:56:53.766Z,3.70
2018-05-04T20:59:21.632Z,4.43
2018-05-04T21:01:49.500Z,4.50
2018-05-04T21:04:17.468Z,5.30
2018-05-04T21:06:45.234Z,5.23
2018-05-04T21:09:13.057Z,4.17
2018-05-04T21:11:41.128Z,4.10
2018-05-04T21:14:09.140Z,4.10
2018-05-04T21:16:37.008Z,4.57
2018-05-04T21:19:04.979Z,4.20
2018-05-04T21:21:32.739Z,4.20
2018-05-04T21:24:00.762Z,3.67
2018-05-04T21:26:28.882Z,4.47
2018-05-04T21:28:56.635Z,4.70
2018-05-04T21:31:24.199Z,6.53
2018-05-04T21:33:52.584Z,4.57
2018-05-04T21:36:20.244Z,3.97
2018-05-04T21:38:48.113Z,5.07
2018-05-04T21:41:16.183Z,4.83
2018-05-04T21:43:43.822Z,6.03
2018-05-04T21:46:11.496Z,6.43
2018-05-04T21:48:39.386Z,4.77
2018-05-04T21:51:07.029Z,6.40
2018-05-04T21:53:34.700Z,5.10
2018-05-04T21:56:02.629Z,6.10
2018-05-04T21:58:30.231Z,6.53
2018-05-04T22:00:57.815Z,9.10
2018-05-04T22:03:25.756Z,9.00
2018-05-04T22:05:53.353Z,7.10
2018-05-04T22:08:20.986Z,7.57
2018-05-04T22:10:49.459Z,4.80
2018-05-04T22:13:17.018Z,4.93
2018-05-04T22:15:44.577Z,4.40
2018-05-04T22:18:12.341Z,3.60
2018-05-04T22:20:39.852Z,3.80
2018-05-04T22:23:07.368Z,4.00
2018-05-04T22:25:35.064Z,4.50
2018-05-04T22:28:02.601Z,4.13
2018-05-04T22:30:30.150Z,4.57
2018-05-04T22:32:57.718Z,5.10
2018-05-04T22:35:25.289Z,3.67
2018-05-04T22:37:52.853Z,4.10
2018-05-04T22:40:20.558Z,4.37
2018-05-04T22:42:48.100Z,4.40
2018-05-04T22:45:15.695Z,4.10
2018-05-04T22:47:43.308Z,4.30
2018-05-04T22:50:10.824Z,5.20
2018-05-04T22:52:38.381Z,4.03
2018-05-04T22:55:06.350Z,4.60
2018-05-04T22:57:33.889Z,4.83
2018-05-04T23:00:01.418Z,4.17
2018-05-04T23:02:29.251Z,4.53
2018-05-04T23:04:56.765Z,5.43
2018-05-04T23:07:24.284Z,4.47
2018-05-04T23:09:51.844Z,4.03
2018-05-04T23:12:19.361Z,4.57
2018-05-04T23:14:46.944Z,5.00
2018-05-04T23:17:14.660Z,5.20
2018-05-04T23:19:42.176Z,4.90
2018-05-04T23:22:09.753Z,4.50
2018-05-04T23:24:37.300Z,4.13
2018-05-04T23:27:04.825Z,4.73
2018-05-04T23:29:32.405Z,4.27
2018-05-04T23:32:00.120Z,3.93
2018-05-04T23:34:27.724Z,5.10
2018-05-04T23:36:55.168Z,5.47
2018-05-04T23:39:22.908Z,4.70
2018-05-04T23:41:50.415Z,4.53
2018-05-04T23:44:17.941Z,4.23
2018-05-04T23:46:45.504Z,5.03
2018-05-04T23:49:13.063Z,4.70
2018-05-04T23:51:40.641Z,5.03
2018-05-04T23:54:08.383Z,4.00
2018-05-04T23:56:35.904Z,3.90
2018-05-04T23:59:03.424Z,4.70
